KFRI

Marshall AAF Airport

Fort Riley(Junction City), Kansas, USA
METAR KFRI 191456Z AUTO 11005KT 10SM -RA FEW039 BKN049 23/20 A2987 RMK AO2 DZB1356E08RAB08E35DZB35E44RAB44 SLP105 P0001 60001 T02270202 55001
Observed Flight Rules
Aug-19 @ 14:56 UTC (42 minutes ago) Visual Flight Rules
Wind Visibility Clouds Conditions
110° at 5 knots 10 miles
  • Few at 3,900' AGL
  • Broken at 4,900' AGL
  • Light Rain
Temperatures Readings Precipitation
Current 23°C / 73°F
Dewpoint 20°C / 68°F
Humidity 83%
Altimeter 29.87" Hg
Pressure 1010.5 hPa
Elevation 325
Current Rain 0.01
METAR KFRI 191456Z AUTO 11005KT 10SM -RA FEW039 BKN049 23/20 A2987 RMK AO2 DZB1356E08RAB08E35DZB35E44RAB44 SLP105 P0001 60001 T02270202 55001
Observed Flight Rules
Aug-19 @ 14:56 UTC
(42 minutes ago)
VFR
Wind Visibility
110° at 5 knots 10 miles
Clouds
  • Few at 3,900' AGL
  • Broken at 4,900' AGL
Conditions
  • Light Rain
Temperature Dewpoint
23°C / 73°F 20°C / 68°F
Humidity Altimeter Pressure
83% 29.87" Hg 1010.5 hPa
Current Rain
0.01